Terminal Aerodrome Forecast
Issued by NWS Tuscon, AZ

Home | Current Version | Previous Version | Text Only | Print | Product List | Glossary On
Versions: 1 2 3 4 5 6 7 8 9 10 11 12
000
FTUS45 KTWC 301736
TAFDUG
TAF
KDUG 301736Z 3018/3118 VRB05KT P6SM FEW250
     FM302000 26007KT P6SM FEW110 FEW250
     FM310300 04010KT P6SM SCT250
     FM311100 08007KT P6SM SCT250=

USA.gov is the U.S. government's official web portal to all federal, state and local government web resources and services.